Time,TemperatureF,DewpointF,PressureIn,WindDirection,WindDirectionDegrees,WindSpeedMPH,WindSpeedGustMPH,Humidity,HourlyPrecipIn,Conditions,Clouds,dailyrainin,SoftwareType,DateUTC
2013-10-03 00:00:00,59.8,55.9,29.99,North,355,0.0,0.0,87,0.00,,CLR,0.00,VWS V14.01,2013-10-03 04:00:00,
2013-10-03 00:01:00,59.7,56.2,29.99,North,355,0.0,0.0,88,0.00,,CLR,0.00,VWS V14.01,2013-10-03 04:01:00,
2013-10-03 00:06:00,59.5,56.0,29.99,North,355,0.0,0.0,88,0.00,,CLR,0.00,VWS V14.01,2013-10-03 04:06:00,
2013-10-03 00:11:00,59.4,55.8,30.00,North,355,0.0,0.0,88,0.00,,CLR,0.00,VWS V14.01,2013-10-03 04:11:00,
2013-10-03 00:15:00,59.4,55.8,29.99,North,355,0.0,0.0,88,0.00,,-RA,0.00,VWS V14.01,2013-10-03 04:15:00,
2013-10-03 00:16:00,59.3,55.8,30.00,North,355,0.0,0.0,88,0.00,,CLR,0.00,VWS V14.01,2013-10-03 04:16:00,
2013-10-03 00:21:00,59.1,55.5,30.00,North,355,0.0,0.0,88,0.00,,CLR,0.00,VWS V14.01,2013-10-03 04:21:00,
2013-10-03 00:26:00,58.9,55.4,30.00,North,355,0.0,0.0,88,0.00,,CLR,0.00,VWS V14.01,2013-10-03 04:26:00,
2013-10-03 00:30:00,58.9,55.4,30.00,North,355,0.0,0.0,88,0.00,,-RA,0.00,VWS V14.01,2013-10-03 04:30:00,
2013-10-03 00:31:00,58.8,55.3,30.00,North,355,0.0,0.0,88,0.00,,CLR,0.00,VWS V14.01,2013-10-03 04:31:00,
2013-10-03 00:36:00,58.7,55.2,30.00,North,355,0.0,0.0,88,0.00,,CLR,0.00,VWS V14.01,2013-10-03 04:36:00,
2013-10-03 00:41:00,58.5,55.0,30.00,North,355,0.0,0.0,88,0.00,,CLR,0.00,VWS V14.01,2013-10-03 04:41:00,
2013-10-03 00:45:00,58.5,55.0,30.00,North,355,0.0,0.0,88,0.00,,-RA,0.00,VWS V14.01,2013-10-03 04:45:00,
2013-10-03 00:46:00,58.4,54.9,30.00,North,355,0.0,0.0,88,0.00,,CLR,0.00,VWS V14.01,2013-10-03 04:46:00,
2013-10-03 00:51:00,58.3,54.8,30.00,North,355,0.0,0.0,88,0.00,,CLR,0.00,VWS V14.01,2013-10-03 04:51:00,
2013-10-03 00:56:00,58.2,54.7,30.00,North,355,0.0,0.0,88,0.00,,CLR,0.00,VWS V14.01,2013-10-03 04:56:00,
2013-10-03 01:00:00,58.2,54.7,30.00,North,355,0.0,0.0,88,0.00,,-RA,0.00,VWS V14.01,2013-10-03 05:00:00,
2013-10-03 01:01:00,58.0,54.5,30.00,North,355,0.0,0.0,88,0.00,,,0.00,VWS V14.01,2013-10-03 05:01:00,
2013-10-03 01:06:00,57.9,54.4,30.00,North,355,0.0,0.0,88,0.00,,,0.00,VWS V14.01,2013-10-03 05:06:00,
2013-10-03 01:11:00,57.8,54.3,30.01,North,355,0.0,0.0,88,0.00,,,0.00,VWS V14.01,2013-10-03 05:11:00,
2013-10-03 01:15:00,59.4,55.8,29.99,North,355,0.0,0.0,88,0.00,,CLR,0.00,VWS V14.01,2013-10-03 05:15:00,
2013-10-03 01:16:00,57.7,54.2,30.01,North,355,0.0,0.0,88,0.00,,,0.00,VWS V14.01,2013-10-03 05:16:00,
2013-10-03 01:21:00,57.6,54.1,30.01,North,355,0.0,0.0,88,0.00,,,0.00,VWS V14.01,2013-10-03 05:21:00,
2013-10-03 01:26:00,57.5,54.0,30.01,North,355,0.0,0.0,88,0.00,,,0.00,VWS V14.01,2013-10-03 05:26:00,
2013-10-03 01:30:00,57.5,54.0,30.01,North,355,0.0,0.0,88,0.00,,-RA,0.00,VWS V14.01,2013-10-03 05:30:00,
2013-10-03 01:31:00,57.3,53.8,30.01,North,355,0.0,0.0,88,0.00,,,0.00,VWS V14.01,2013-10-03 05:31:00,
2013-10-03 01:36:00,57.2,53.7,30.01,North,355,0.0,0.0,88,0.00,,,0.00,VWS V14.01,2013-10-03 05:36:00,
2013-10-03 01:41:00,57.1,53.6,30.01,North,355,0.0,0.0,88,0.00,,,0.00,VWS V14.01,2013-10-03 05:41:00,
2013-10-03 01:45:00,58.5,55.0,30.00,North,355,0.0,0.0,88,0.00,,CLR,0.00,VWS V14.01,2013-10-03 05:45:00,
2013-10-03 01:46:00,57.0,53.5,30.02,North,355,0.0,0.0,88,0.00,,,0.00,VWS V14.01,2013-10-03 05:46:00,
2013-10-03 01:51:00,56.9,53.4,30.02,North,355,0.0,0.0,88,0.00,,,0.00,VWS V14.01,2013-10-03 05:51:00,
2013-10-03 01:56:00,56.7,53.2,30.01,North,355,0.0,0.0,88,0.00,,,0.00,VWS V14.01,2013-10-03 05:56:00,
2013-10-03 02:00:00,56.7,53.2,30.02,North,355,0.0,0.0,88,0.00,,-RA,0.00,VWS V14.01,2013-10-03 06:00:00,
2013-10-03 02:01:00,56.6,53.1,30.02,North,355,0.0,0.0,88,0.00,,,0.00,VWS V14.01,2013-10-03 06:01:00,
2013-10-03 02:06:00,56.5,53.3,30.02,North,355,0.0,0.0,89,0.00,,,0.00,VWS V14.01,2013-10-03 06:06:00,
2013-10-03 02:11:00,56.4,53.2,30.02,North,355,0.0,0.0,89,0.00,,,0.00,VWS V14.01,2013-10-03 06:11:00,
2013-10-03 02:15:00,57.8,54.3,30.01,North,355,0.0,0.0,88,0.00,,CLR,0.00,VWS V14.01,2013-10-03 06:15:00,
2013-10-03 02:16:00,56.4,53.2,30.02,North,355,0.0,0.0,89,0.00,,,0.00,VWS V14.01,2013-10-03 06:16:00,
2013-10-03 02:21:00,56.3,53.1,30.02,North,355,0.0,0.0,89,0.00,,,0.00,VWS V14.01,2013-10-03 06:21:00,
2013-10-03 02:26:00,56.2,53.0,30.02,North,355,0.0,0.0,89,0.00,,,0.00,VWS V14.01,2013-10-03 06:26:00,
2013-10-03 02:30:00,56.2,53.0,30.02,North,355,0.0,0.0,89,0.00,,-RA,0.00,VWS V14.01,2013-10-03 06:30:00,
2013-10-03 02:31:00,56.1,52.9,30.02,North,355,0.0,0.0,89,0.00,,,0.00,VWS V14.01,2013-10-03 06:31:00,
2013-10-03 02:36:00,56.0,52.8,30.02,North,355,0.0,0.0,89,0.00,,,0.00,VWS V14.01,2013-10-03 06:36:00,
2013-10-03 02:41:00,56.0,53.1,30.02,North,355,0.0,0.0,90,0.00,,,0.00,VWS V14.01,2013-10-03 06:41:00,
2013-10-03 02:45:00,56.0,53.1,30.02,North,355,0.0,0.0,90,0.00,,-RA,0.00,VWS V14.01,2013-10-03 06:45:00,
2013-10-03 02:46:00,56.0,53.1,30.02,North,355,0.0,0.0,90,0.00,,,0.00,VWS V14.01,2013-10-03 06:46:00,
2013-10-03 02:51:00,55.9,53.0,30.02,North,355,0.0,0.0,90,0.00,,,0.00,VWS V14.01,2013-10-03 06:51:00,
2013-10-03 02:56:00,55.9,53.0,30.02,North,355,0.0,0.0,90,0.00,,,0.00,VWS V14.01,2013-10-03 06:56:00,
2013-10-03 03:00:00,55.9,53.0,30.02,North,355,0.0,0.0,90,0.00,,-RA,0.00,VWS V14.01,2013-10-03 07:00:00,
2013-10-03 03:01:00,55.8,52.9,30.02,North,355,0.0,0.0,90,0.00,,,0.00,VWS V14.01,2013-10-03 07:01:00,
2013-10-03 03:06:00,55.7,52.8,30.02,North,355,0.0,0.0,90,0.00,,,0.00,VWS V14.01,2013-10-03 07:06:00,
2013-10-03 03:11:00,55.6,52.7,30.02,North,355,0.0,0.0,90,0.00,,,0.00,VWS V14.01,2013-10-03 07:11:00,
2013-10-03 03:15:00,55.6,52.7,30.02,North,355,0.0,0.0,90,0.00,,-RA,0.00,VWS V14.01,2013-10-03 07:15:00,
2013-10-03 03:16:00,55.5,52.6,30.02,North,355,0.0,0.0,90,0.00,,,0.00,VWS V14.01,2013-10-03 07:16:00,
2013-10-03 03:21:00,55.5,52.6,30.02,North,355,0.0,0.0,90,0.00,,,0.00,VWS V14.01,2013-10-03 07:21:00,
2013-10-03 03:26:00,55.4,52.5,30.02,North,355,0.0,0.0,90,0.00,,,0.00,VWS V14.01,2013-10-03 07:26:00,
2013-10-03 03:30:00,55.3,52.4,30.02,North,355,0.0,0.0,90,0.00,,-RA,0.00,VWS V14.01,2013-10-03 07:30:00,
2013-10-03 03:31:00,55.3,52.4,30.03,North,355,0.0,0.0,90,0.00,,,0.00,VWS V14.01,2013-10-03 07:31:00,
2013-10-03 03:36:00,55.1,52.2,30.03,North,355,0.0,0.0,90,0.00,,,0.00,VWS V14.01,2013-10-03 07:36:00,
2013-10-03 03:41:00,55.0,52.1,30.03,North,355,0.0,0.0,90,0.00,,,0.00,VWS V14.01,2013-10-03 07:41:00,
2013-10-03 03:45:00,54.9,52.0,30.03,North,355,0.0,0.0,90,0.00,,-RA,0.00,VWS V14.01,2013-10-03 07:45:00,
2013-10-03 03:46:00,54.8,51.9,30.03,North,355,0.0,0.0,90,0.00,,,0.00,VWS V14.01,2013-10-03 07:46:00,
2013-10-03 03:51:00,54.8,51.9,30.03,North,355,0.0,0.0,90,0.00,,,0.00,VWS V14.01,2013-10-03 07:51:00,
2013-10-03 03:56:00,54.7,51.8,30.03,North,355,0.0,0.0,90,0.00,,,0.00,VWS V14.01,2013-10-03 07:56:00,
2013-10-03 04:00:00,55.9,53.0,30.02,North,355,0.0,0.0,90,0.00,,CLR,0.00,VWS V14.01,2013-10-03 08:00:00,
2013-10-03 04:01:00,54.6,51.7,30.03,North,355,0.0,0.0,90,0.00,,,0.00,VWS V14.01,2013-10-03 08:01:00,
2013-10-03 04:06:00,54.5,51.6,30.03,North,355,0.0,0.0,90,0.00,,,0.00,VWS V14.01,2013-10-03 08:06:00,
2013-10-03 04:11:00,54.4,51.5,30.04,North,355,0.0,0.0,90,0.00,,,0.00,VWS V14.01,2013-10-03 08:11:00,
2013-10-03 04:15:00,54.4,51.5,30.04,North,355,0.0,0.0,90,0.00,,-RA,0.00,VWS V14.01,2013-10-03 08:15:00,
2013-10-03 04:16:00,54.3,51.4,30.04,North,355,0.0,0.0,90,0.00,,,0.00,VWS V14.01,2013-10-03 08:16:00,
2013-10-03 04:21:00,54.2,51.3,30.04,North,355,0.0,0.0,90,0.00,,,0.00,VWS V14.01,2013-10-03 08:21:00,
2013-10-03 04:26:00,54.1,51.2,30.04,North,355,0.0,0.0,90,0.00,,,0.00,VWS V14.01,2013-10-03 08:26:00,
2013-10-03 04:30:00,54.0,51.1,30.04,North,355,0.0,0.0,90,0.00,,-RA,0.00,VWS V14.01,2013-10-03 08:30:00,
2013-10-03 04:31:00,53.9,51.0,30.04,North,355,0.0,0.0,90,0.00,,,0.00,VWS V14.01,2013-10-03 08:31:00,
2013-10-03 04:35:00,53.8,50.9,30.04,North,355,0.0,0.0,90,0.00,,,0.00,VWS V14.01,2013-10-03 08:35:00,
2013-10-03 04:40:00,53.7,51.1,30.04,North,355,0.0,0.0,91,0.00,,,0.00,VWS V14.01,2013-10-03 08:40:00,
2013-10-03 04:45:00,53.6,51.0,30.04,North,355,0.0,0.0,91,0.00,,,0.00,VWS V14.01,2013-10-03 08:45:00,
2013-10-03 04:50:00,53.6,51.0,30.04,North,355,0.0,0.0,91,0.00,,,0.00,VWS V14.01,2013-10-03 08:50:00,
2013-10-03 04:55:00,53.5,50.9,30.04,North,355,0.0,0.0,91,0.00,,,0.00,VWS V14.01,2013-10-03 08:55:00,
2013-10-03 05:00:00,53.5,50.9,30.05,North,355,0.0,0.0,91,0.00,,,0.00,VWS V14.01,2013-10-03 09:00:00,
2013-10-03 05:05:00,53.3,50.7,30.05,North,355,0.0,0.0,91,0.00,,,0.00,VWS V14.01,2013-10-03 09:05:00,
2013-10-03 05:10:00,53.3,50.7,30.05,North,355,0.0,0.0,91,0.00,,,0.00,VWS V14.01,2013-10-03 09:10:00,
2013-10-03 05:15:00,53.2,50.7,30.05,North,355,0.0,0.0,91,0.00,,,0.00,VWS V14.01,2013-10-03 09:15:00,
2013-10-03 05:20:00,53.1,50.5,30.05,North,355,0.0,0.0,91,0.00,,,0.00,VWS V14.01,2013-10-03 09:20:00,
2013-10-03 05:25:00,53.0,50.5,30.05,North,355,0.0,0.0,91,0.00,,,0.00,VWS V14.01,2013-10-03 09:25:00,
2013-10-03 05:30:00,52.9,50.3,30.05,North,355,0.0,0.0,91,0.00,,,0.00,VWS V14.01,2013-10-03 09:30:00,
2013-10-03 05:35:00,52.8,50.2,30.05,North,355,0.0,0.0,91,0.00,,,0.00,VWS V14.01,2013-10-03 09:35:00,
2013-10-03 05:40:00,52.7,50.2,30.05,North,355,0.0,0.0,91,0.00,,,0.00,VWS V14.01,2013-10-03 09:40:00,
2013-10-03 05:45:00,52.5,50.0,30.06,North,355,0.0,0.0,91,0.00,,,0.00,VWS V14.01,2013-10-03 09:45:00,
2013-10-03 05:50:00,52.4,49.8,30.06,North,355,0.0,0.0,91,0.00,,,0.00,VWS V14.01,2013-10-03 09:50:00,
2013-10-03 05:55:00,52.3,49.8,30.06,North,355,0.0,0.0,91,0.00,,,0.00,VWS V14.01,2013-10-03 09:55:00,
2013-10-03 06:00:00,52.3,49.8,30.06,North,355,0.0,0.0,91,0.00,,,0.00,VWS V14.01,2013-10-03 10:00:00,
2013-10-03 06:05:00,52.2,49.7,30.06,North,355,0.0,0.0,91,0.00,,,0.00,VWS V14.01,2013-10-03 10:05:00,
2013-10-03 06:10:00,52.1,49.6,30.06,North,355,0.0,0.0,91,0.00,,,0.00,VWS V14.01,2013-10-03 10:10:00,
2013-10-03 06:15:00,52.1,49.6,30.06,North,355,0.0,0.0,91,0.00,,,0.00,VWS V14.01,2013-10-03 10:15:00,
2013-10-03 06:20:00,52.1,49.6,30.06,North,355,0.0,0.0,91,0.00,,,0.00,VWS V14.01,2013-10-03 10:20:00,
2013-10-03 06:25:00,52.1,49.6,30.07,North,355,0.0,0.0,91,0.00,,,0.00,VWS V14.01,2013-10-03 10:25:00,
2013-10-03 06:30:00,52.0,49.5,30.07,North,355,0.0,0.0,91,0.00,,,0.00,VWS V14.01,2013-10-03 10:30:00,
2013-10-03 06:35:00,51.9,49.4,30.08,North,355,0.0,0.0,91,0.00,,,0.00,VWS V14.01,2013-10-03 10:35:00,
2013-10-03 06:40:00,51.8,49.3,30.07,North,355,0.0,0.0,91,0.00,,,0.00,VWS V14.01,2013-10-03 10:40:00,
2013-10-03 06:45:00,51.8,49.3,30.07,North,355,0.0,0.0,91,0.00,,,0.00,VWS V14.01,2013-10-03 10:45:00,
2013-10-03 06:50:00,51.7,49.2,30.08,North,355,0.0,0.0,91,0.00,,,0.00,VWS V14.01,2013-10-03 10:50:00,
2013-10-03 06:55:00,51.7,49.2,30.08,North,355,0.0,0.0,91,0.00,,,0.00,VWS V14.01,2013-10-03 10:55:00,
2013-10-03 07:00:00,51.6,49.1,30.08,North,355,0.0,0.0,91,0.00,,,0.00,VWS V14.01,2013-10-03 11:00:00,
2013-10-03 07:05:00,51.5,49.0,30.08,North,355,0.0,0.0,91,0.00,,,0.00,VWS V14.01,2013-10-03 11:05:00,
2013-10-03 07:10:00,51.4,48.9,30.08,North,355,0.0,0.0,91,0.00,,,0.00,VWS V14.01,2013-10-03 11:10:00,
2013-10-03 07:15:00,51.3,48.8,30.08,North,355,0.0,0.0,91,0.00,,,0.00,VWS V14.01,2013-10-03 11:15:00,
2013-10-03 07:20:00,51.3,48.8,30.08,North,355,0.0,0.0,91,0.00,,,0.00,VWS V14.01,2013-10-03 11:20:00,
2013-10-03 07:25:00,51.3,48.8,30.09,North,355,0.0,0.0,91,0.00,,,0.00,VWS V14.01,2013-10-03 11:25:00,
2013-10-03 07:30:00,51.3,48.8,30.09,North,355,0.0,0.0,91,0.00,,,0.00,VWS V14.01,2013-10-03 11:30:00,
2013-10-03 07:35:00,51.4,48.9,30.09,North,355,0.0,0.0,91,0.00,,,0.00,VWS V14.01,2013-10-03 11:35:00,
2013-10-03 07:40:00,51.4,48.9,30.09,North,355,0.0,0.0,91,0.00,,,0.00,VWS V14.01,2013-10-03 11:40:00,
2013-10-03 07:45:00,51.5,49.3,30.09,North,355,0.0,0.0,92,0.00,,,0.00,VWS V14.01,2013-10-03 11:45:00,
2013-10-03 07:50:00,51.5,49.3,30.09,North,355,0.0,0.0,92,0.00,,,0.00,VWS V14.01,2013-10-03 11:50:00,
2013-10-03 07:55:00,51.5,49.3,30.09,North,355,0.0,0.0,92,0.00,,,0.00,VWS V14.01,2013-10-03 11:55:00,
2013-10-03 08:00:00,51.6,49.4,30.09,North,355,0.0,0.0,92,0.00,,CLR,0.00,VWS V14.01,2013-10-03 12:00:00,
2013-10-03 08:05:00,51.7,49.5,30.10,North,355,0.0,0.0,92,0.00,,CLR,0.00,VWS V14.01,2013-10-03 12:05:00,
2013-10-03 08:10:00,51.7,49.5,30.10,North,355,0.0,0.0,92,0.00,,CLR,0.00,VWS V14.01,2013-10-03 12:10:00,
2013-10-03 08:15:00,51.8,49.5,30.10,North,355,0.0,0.0,92,0.00,,CLR,0.00,VWS V14.01,2013-10-03 12:15:00,
2013-10-03 08:20:00,51.9,49.7,30.10,North,355,0.0,0.0,92,0.00,,CLR,0.00,VWS V14.01,2013-10-03 12:20:00,
2013-10-03 08:25:00,52.0,49.8,30.10,North,355,0.0,0.0,92,0.00,,CLR,0.00,VWS V14.01,2013-10-03 12:25:00,
2013-10-03 08:30:00,52.1,49.8,30.10,North,355,0.0,0.0,92,0.00,,CLR,0.00,VWS V14.01,2013-10-03 12:30:00,
2013-10-03 08:35:00,52.3,50.0,30.10,North,355,0.0,0.0,92,0.00,,CLR,0.00,VWS V14.01,2013-10-03 12:35:00,
2013-10-03 08:40:00,52.4,50.2,30.10,North,355,0.0,0.0,92,0.00,,CLR,0.00,VWS V14.01,2013-10-03 12:40:00,
2013-10-03 08:45:00,52.8,50.5,30.10,North,355,0.0,0.0,92,0.00,,CLR,0.00,VWS V14.01,2013-10-03 12:45:00,
2013-10-03 08:50:00,53.0,50.7,30.10,North,355,0.0,0.0,92,0.00,,CLR,0.00,VWS V14.01,2013-10-03 12:50:00,
2013-10-03 08:55:00,53.2,51.2,30.10,North,355,0.0,0.0,93,0.00,,CLR,0.00,VWS V14.01,2013-10-03 12:55:00,
2013-10-03 09:00:00,53.4,51.4,30.10,North,355,0.0,0.0,93,0.00,,CLR,0.00,VWS V14.01,2013-10-03 13:00:00,
2013-10-03 09:05:00,53.5,51.2,30.10,North,355,0.0,0.0,92,0.00,,CLR,0.00,VWS V14.01,2013-10-03 13:05:00,
2013-10-03 09:10:00,53.7,51.7,30.10,North,355,0.0,0.0,93,0.00,,CLR,0.00,VWS V14.01,2013-10-03 13:10:00,
2013-10-03 09:15:00,53.9,51.9,30.10,North,355,0.0,0.0,93,0.00,,CLR,0.00,VWS V14.01,2013-10-03 13:15:00,
2013-10-03 09:20:00,54.1,52.1,30.10,North,355,0.0,0.0,93,0.00,,CLR,0.00,VWS V14.01,2013-10-03 13:20:00,
2013-10-03 09:25:00,54.3,52.3,30.10,North,355,0.0,0.0,93,0.00,,CLR,0.00,VWS V14.01,2013-10-03 13:25:00,
2013-10-03 09:30:00,54.5,52.5,30.10,North,355,0.0,0.0,93,0.00,,CLR,0.00,VWS V14.01,2013-10-03 13:30:00,
2013-10-03 09:35:00,54.8,52.8,30.10,North,355,0.0,0.0,93,0.00,,CLR,0.00,VWS V14.01,2013-10-03 13:35:00,
2013-10-03 09:40:00,54.9,52.9,30.10,North,355,0.0,0.0,93,0.00,,CLR,0.00,VWS V14.01,2013-10-03 13:40:00,
2013-10-03 09:45:00,55.2,53.2,30.11,North,355,0.0,0.0,93,0.00,,CLR,0.00,VWS V14.01,2013-10-03 13:45:00,
2013-10-03 09:50:00,55.4,53.4,30.10,North,355,0.0,0.0,93,0.00,,CLR,0.00,VWS V14.01,2013-10-03 13:50:00,
2013-10-03 09:55:00,55.7,53.7,30.11,North,355,0.0,0.0,93,0.00,,CLR,0.00,VWS V14.01,2013-10-03 13:55:00,
2013-10-03 10:00:00,56.1,54.1,30.10,North,355,0.0,0.0,93,0.00,,CLR,0.00,VWS V14.01,2013-10-03 14:00:00,
2013-10-03 10:05:00,56.3,54.3,30.11,North,355,0.0,0.0,93,0.00,,CLR,0.00,VWS V14.01,2013-10-03 14:05:00,
2013-10-03 10:10:00,56.5,54.5,30.10,North,355,0.0,0.0,93,0.00,,CLR,0.00,VWS V14.01,2013-10-03 14:10:00,
2013-10-03 10:15:00,56.6,54.6,30.10,North,355,0.0,0.0,93,0.00,,CLR,0.00,VWS V14.01,2013-10-03 14:15:00,
2013-10-03 10:20:00,56.7,54.7,30.10,North,355,0.0,0.0,93,0.00,,CLR,0.00,VWS V14.01,2013-10-03 14:20:00,
2013-10-03 10:25:00,57.0,55.0,30.10,North,355,0.0,0.0,93,0.00,,CLR,0.00,VWS V14.01,2013-10-03 14:25:00,
2013-10-03 10:30:00,57.3,55.3,30.10,North,355,0.0,0.0,93,0.00,,CLR,0.00,VWS V14.01,2013-10-03 14:30:00,
2013-10-03 10:35:00,57.6,55.6,30.10,North,355,0.0,0.0,93,0.00,,CLR,0.00,VWS V14.01,2013-10-03 14:35:00,
2013-10-03 10:40:00,58.0,56.0,30.10,North,355,0.0,0.0,93,0.00,,CLR,0.00,VWS V14.01,2013-10-03 14:40:00,
2013-10-03 10:45:00,58.3,56.0,30.10,NNE,29,0.0,0.0,92,0.00,,CLR,0.00,VWS V14.01,2013-10-03 14:45:00,
2013-10-03 10:50:00,58.8,55.9,30.10,NNE,30,0.0,0.0,90,0.00,,CLR,0.00,VWS V14.01,2013-10-03 14:50:00,
2013-10-03 10:55:00,59.4,55.8,30.10,NNE,30,0.0,0.0,88,0.00,,CLR,0.00,VWS V14.01,2013-10-03 14:55:00,
2013-10-03 11:00:00,60.1,55.3,30.10,NNE,30,0.0,0.0,84,0.00,,CLR,0.00,VWS V14.01,2013-10-03 15:00:00,
2013-10-03 11:05:00,60.9,54.3,30.10,NNE,30,0.0,0.0,79,0.00,,CLR,0.00,VWS V14.01,2013-10-03 15:05:00,
2013-10-03 11:10:00,61.7,53.7,30.10,NNE,30,0.0,0.0,75,0.00,,CLR,0.00,VWS V14.01,2013-10-03 15:10:00,
2013-10-03 11:15:00,62.9,52.6,30.09,NNE,28,0.0,0.0,69,0.00,,CLR,0.00,VWS V14.01,2013-10-03 15:15:00,
2013-10-03 11:20:00,64.3,52.3,30.09,North,11,0.0,0.0,65,0.00,,CLR,0.00,VWS V14.01,2013-10-03 15:20:00,
2013-10-03 11:25:00,65.4,52.9,30.09,North,349,0.0,0.0,64,0.00,,CLR,0.00,VWS V14.01,2013-10-03 15:25:00,
2013-10-03 11:30:00,66.1,52.7,30.09,North,349,0.0,0.0,62,0.00,,CLR,0.00,VWS V14.01,2013-10-03 15:30:00,
2013-10-03 11:35:00,67.0,53.6,30.09,North,349,0.0,0.0,62,0.00,,CLR,0.00,VWS V14.01,2013-10-03 15:35:00,
2013-10-03 11:40:00,67.8,53.0,30.09,North,349,0.0,0.0,59,0.00,,CLR,0.00,VWS V14.01,2013-10-03 15:40:00,
2013-10-03 11:45:00,68.5,54.5,30.09,North,349,0.0,0.0,61,0.00,,CLR,0.00,VWS V14.01,2013-10-03 15:45:00,
2013-10-03 11:50:00,69.3,53.9,30.09,North,5,0.0,3.0,58,0.00,,CLR,0.00,VWS V14.01,2013-10-03 15:50:00,
2013-10-03 11:55:00,70.2,55.2,30.08,North,5,0.0,3.0,59,0.00,,CLR,0.00,VWS V14.01,2013-10-03 15:55:00,
2013-10-03 12:00:00,70.9,54.4,30.08,North,9,0.0,4.0,56,0.00,,CLR,0.00,VWS V14.01,2013-10-03 16:00:00,
2013-10-03 12:05:00,71.5,55.5,30.08,North,9,1.0,4.0,57,0.00,,CLR,0.00,VWS V14.01,2013-10-03 16:05:00,
2013-10-03 12:10:00,71.8,55.8,30.08,North,9,0.0,4.0,57,0.00,,CLR,0.00,VWS V14.01,2013-10-03 16:10:00,
2013-10-03 12:15:00,72.4,55.8,30.08,North,5,0.0,3.0,56,0.00,,CLR,0.00,VWS V14.01,2013-10-03 16:15:00,
2013-10-03 12:20:00,72.7,56.1,30.07,North,5,0.0,3.0,56,0.00,,CLR,0.00,VWS V14.01,2013-10-03 16:20:00,
2013-10-03 12:25:00,73.0,54.9,30.07,NNW,336,0.0,3.0,53,0.00,,CLR,0.00,VWS V14.01,2013-10-03 16:25:00,
2013-10-03 12:30:00,73.4,56.8,30.07,NNW,336,0.0,1.0,56,0.00,,CLR,0.00,VWS V14.01,2013-10-03 16:30:00,
2013-10-03 12:35:00,73.5,54.8,30.07,NNE,13,1.0,2.0,52,0.00,,CLR,0.00,VWS V14.01,2013-10-03 16:35:00,
2013-10-03 12:40:00,73.5,55.9,30.06,NNE,20,1.0,2.0,54,0.00,,CLR,0.00,VWS V14.01,2013-10-03 16:40:00,
2013-10-03 12:45:00,73.4,56.8,30.06,NNE,20,0.0,1.0,56,0.00,,CLR,0.00,VWS V14.01,2013-10-03 16:45:00,
2013-10-03 12:50:00,73.5,56.9,30.06,NNE,20,0.0,1.0,56,0.00,,CLR,0.00,VWS V14.01,2013-10-03 16:50:00,
2013-10-03 12:55:00,73.6,57.0,30.06,NNE,20,0.0,1.0,56,0.00,,CLR,0.00,VWS V14.01,2013-10-03 16:55:00,
2013-10-03 13:00:00,73.7,56.5,30.05,NNE,20,0.0,1.0,55,0.00,,CLR,0.00,VWS V14.01,2013-10-03 17:00:00,
2013-10-03 13:05:00,73.8,55.6,30.05,NNE,20,0.0,1.0,53,0.00,,CLR,0.00,VWS V14.01,2013-10-03 17:05:00,
2013-10-03 13:10:00,73.9,56.7,30.05,NNE,20,0.0,1.0,55,0.00,,CLR,0.00,VWS V14.01,2013-10-03 17:10:00,
2013-10-03 13:15:00,74.1,54.8,30.05,NNE,20,0.0,1.0,51,0.00,,CLR,0.00,VWS V14.01,2013-10-03 17:15:00,
2013-10-03 13:20:00,74.4,55.7,30.05,NW,319,0.0,4.0,52,0.00,,CLR,0.00,VWS V14.01,2013-10-03 17:20:00,
2013-10-03 13:25:00,74.8,54.9,30.05,NW,320,1.0,4.0,50,0.00,,CLR,0.00,VWS V14.01,2013-10-03 17:25:00,
2013-10-03 13:30:00,74.9,56.6,30.05,NW,320,0.0,1.0,53,0.00,,CLR,0.00,VWS V14.01,2013-10-03 17:30:00,
2013-10-03 13:35:00,75.1,56.3,30.05,NW,320,0.0,1.0,52,0.00,,CLR,0.00,VWS V14.01,2013-10-03 17:35:00,
2013-10-03 13:40:00,75.4,56.6,30.04,NW,320,0.0,2.0,52,0.00,,CLR,0.00,VWS V14.01,2013-10-03 17:40:00,
2013-10-03 13:45:00,75.6,56.2,30.04,NW,320,0.0,1.0,51,0.00,,CLR,0.00,VWS V14.01,2013-10-03 17:45:00,
2013-10-03 13:50:00,75.7,55.8,30.04,NW,320,0.0,1.0,50,0.00,,CLR,0.00,VWS V14.01,2013-10-03 17:50:00,
2013-10-03 13:55:00,75.8,55.9,30.04,NW,321,0.0,1.0,50,0.00,,CLR,0.00,VWS V14.01,2013-10-03 17:55:00,
2013-10-03 14:00:00,75.8,56.9,30.03,NW,321,0.0,1.0,52,0.00,,CLR,0.00,VWS V14.01,2013-10-03 18:00:00,
2013-10-03 14:05:00,76.0,57.1,30.03,NW,321,0.0,1.0,52,0.00,,CLR,0.00,VWS V14.01,2013-10-03 18:05:00,
2013-10-03 14:10:00,76.3,56.3,30.03,NW,321,0.0,1.0,50,0.00,,CLR,0.00,VWS V14.01,2013-10-03 18:10:00,
2013-10-03 14:15:00,76.5,55.4,30.03,NNW,340,0.0,1.0,48,0.00,,CLR,0.00,VWS V14.01,2013-10-03 18:15:00,
2013-10-03 14:20:00,76.6,53.1,30.03,NNW,340,1.0,1.0,44,0.00,,CLR,0.00,VWS V14.01,2013-10-03 18:20:00,
2013-10-03 14:25:00,76.8,53.9,30.03,NNW,340,0.0,1.0,45,0.00,,CLR,0.00,VWS V14.01,2013-10-03 18:25:00,
2013-10-03 14:30:00,76.8,54.5,30.03,NNW,342,0.0,1.0,46,0.00,,CLR,0.00,VWS V14.01,2013-10-03 18:30:00,
2013-10-03 14:35:00,76.8,55.7,30.03,NNW,342,0.0,1.0,48,0.00,,CLR,0.00,VWS V14.01,2013-10-03 18:35:00,
2013-10-03 14:40:00,76.8,55.1,30.03,NNW,342,0.0,1.0,47,0.00,,CLR,0.00,VWS V14.01,2013-10-03 18:40:00,
2013-10-03 14:45:00,76.8,53.9,30.03,NNW,342,0.0,1.0,45,0.00,,CLR,0.00,VWS V14.01,2013-10-03 18:45:00,
2013-10-03 14:50:00,76.7,56.1,30.02,NNW,342,0.0,1.0,49,0.00,,CLR,0.00,VWS V14.01,2013-10-03 18:50:00,
2013-10-03 14:55:00,76.6,56.6,30.03,NNW,342,0.0,1.0,50,0.00,,CLR,0.00,VWS V14.01,2013-10-03 18:55:00,
2013-10-03 15:00:00,76.5,52.4,30.03,NNW,342,0.0,1.0,43,0.00,,CLR,0.00,VWS V14.01,2013-10-03 19:00:00,
2013-10-03 15:05:00,76.6,56.0,30.02,NNW,342,0.0,1.0,49,0.00,,CLR,0.00,VWS V14.01,2013-10-03 19:05:00,
2013-10-03 15:10:00,76.4,55.8,30.02,NNW,342,0.0,1.0,49,0.00,,CLR,0.00,VWS V14.01,2013-10-03 19:10:00,
2013-10-03 15:15:00,76.5,55.4,30.02,NNW,342,0.0,0.0,48,0.00,,CLR,0.00,VWS V14.01,2013-10-03 19:15:00,
2013-10-03 15:20:00,76.5,55.4,30.02,NNW,342,0.0,0.0,48,0.00,,CLR,0.00,VWS V14.01,2013-10-03 19:20:00,
2013-10-03 15:25:00,76.4,55.8,30.02,NNW,342,0.0,0.0,49,0.00,,CLR,0.00,VWS V14.01,2013-10-03 19:25:00,
2013-10-03 15:30:00,76.1,57.2,30.01,NNW,342,0.0,0.0,52,0.00,,CLR,0.00,VWS V14.01,2013-10-03 19:30:00,
2013-10-03 15:35:00,75.8,56.9,30.02,NNW,342,0.0,0.0,52,0.00,,CLR,0.00,VWS V14.01,2013-10-03 19:35:00,
2013-10-03 15:40:00,75.6,56.8,30.02,NNW,342,0.0,0.0,52,0.00,,CLR,0.00,VWS V14.01,2013-10-03 19:40:00,
2013-10-03 15:45:00,75.3,55.9,30.01,NNW,342,0.0,0.0,51,0.00,,CLR,0.00,VWS V14.01,2013-10-03 19:45:00,
2013-10-03 15:50:00,75.1,55.2,30.01,NNW,342,0.0,0.0,50,0.00,,CLR,0.00,VWS V14.01,2013-10-03 19:50:00,
2013-10-03 15:55:00,74.9,55.0,30.01,NNW,342,0.0,0.0,50,0.00,,CLR,0.00,VWS V14.01,2013-10-03 19:55:00,
2013-10-03 16:00:00,74.6,53.1,30.01,NNW,342,0.0,0.0,47,0.00,,CLR,0.00,VWS V14.01,2013-10-03 20:00:00,
2013-10-03 16:05:00,74.2,53.3,30.01,NNW,342,0.0,0.0,48,0.00,,CLR,0.00,VWS V14.01,2013-10-03 20:05:00,
2013-10-03 16:09:00,73.9,51.8,30.01,NNW,342,0.0,0.0,46,0.00,,CLR,0.00,VWS V14.01,2013-10-03 20:09:00,
2013-10-03 16:14:00,73.8,51.8,30.01,NNW,342,0.0,0.0,46,0.00,,CLR,0.00,VWS V14.01,2013-10-03 20:14:00,
2013-10-03 16:15:00,73.8,51.8,30.01,NNW,342,0.0,0.0,46,0.00,,-RA,0.00,VWS V14.01,2013-10-03 20:15:00,
2013-10-03 16:20:00,73.8,54.6,30.01,NNW,342,0.0,0.0,51,0.00,,CLR,0.00,VWS V14.01,2013-10-03 20:20:00,
2013-10-03 16:25:00,73.6,54.9,30.01,NNW,342,0.0,0.0,52,0.00,,CLR,0.00,VWS V14.01,2013-10-03 20:25:00,
2013-10-03 16:30:00,73.4,54.2,30.01,NNW,342,0.0,0.0,51,0.00,,CLR,0.00,VWS V14.01,2013-10-03 20:30:00,
2013-10-03 16:35:00,73.3,54.6,30.01,NNW,342,0.0,0.0,52,0.00,,CLR,0.00,VWS V14.01,2013-10-03 20:35:00,
2013-10-03 16:39:00,73.1,55.5,30.01,NNW,342,0.0,0.0,54,0.00,,CLR,0.00,VWS V14.01,2013-10-03 20:39:00,
2013-10-03 16:44:00,72.8,54.7,30.01,NNW,342,0.0,0.0,53,0.00,,CLR,0.00,VWS V14.01,2013-10-03 20:44:00,
2013-10-03 16:45:00,73.0,55.4,30.01,NNW,342,0.0,0.0,54,0.00,,-RA,0.00,VWS V14.01,2013-10-03 20:45:00,
2013-10-03 16:49:00,72.7,55.1,30.01,NNW,342,0.0,0.0,54,0.00,,CLR,0.00,VWS V14.01,2013-10-03 20:49:00,
2013-10-03 16:54:00,72.4,55.8,30.01,NNW,342,0.0,0.0,56,0.00,,CLR,0.00,VWS V14.01,2013-10-03 20:54:00,
2013-10-03 16:59:00,72.2,56.1,30.01,NNW,342,0.0,0.0,57,0.00,,CLR,0.00,VWS V14.01,2013-10-03 20:59:00,
2013-10-03 17:00:00,72.3,56.2,30.01,NNW,342,0.0,0.0,57,0.00,,-RA,0.00,VWS V14.01,2013-10-03 21:00:00,
2013-10-03 17:04:00,71.9,56.3,30.01,NNW,342,0.0,0.0,58,0.00,,CLR,0.00,VWS V14.01,2013-10-03 21:04:00,
2013-10-03 17:09:00,71.6,57.5,30.01,NNW,342,0.0,0.0,61,0.00,,CLR,0.00,VWS V14.01,2013-10-03 21:09:00,
2013-10-03 17:14:00,71.3,57.2,30.01,NNW,342,0.0,0.0,61,0.00,,CLR,0.00,VWS V14.01,2013-10-03 21:14:00,
2013-10-03 17:15:00,71.5,57.4,30.01,NNW,342,0.0,0.0,61,0.00,,-RA,0.00,VWS V14.01,2013-10-03 21:15:00,
2013-10-03 17:19:00,71.2,56.6,30.01,NNW,342,0.0,0.0,60,0.00,,CLR,0.00,VWS V14.01,2013-10-03 21:19:00,
2013-10-03 17:24:00,71.0,56.4,30.01,NNW,342,0.0,0.0,60,0.00,,CLR,0.00,VWS V14.01,2013-10-03 21:24:00,
2013-10-03 17:29:00,70.8,56.2,30.02,NNW,342,0.0,0.0,60,0.00,,CLR,0.00,VWS V14.01,2013-10-03 21:29:00,
2013-10-03 17:30:00,71.0,56.4,30.01,NNW,342,0.0,0.0,60,0.00,,-RA,0.00,VWS V14.01,2013-10-03 21:30:00,
2013-10-03 17:34:00,70.6,56.5,30.02,NNW,342,0.0,0.0,61,0.00,,CLR,0.00,VWS V14.01,2013-10-03 21:34:00,
2013-10-03 17:39:00,70.4,56.3,30.02,NNW,342,0.0,0.0,61,0.00,,CLR,0.00,VWS V14.01,2013-10-03 21:39:00,
2013-10-03 17:44:00,70.1,56.5,30.02,NNW,342,0.0,0.0,62,0.00,,CLR,0.00,VWS V14.01,2013-10-03 21:44:00,
2013-10-03 17:45:00,70.3,56.7,30.02,NNW,342,0.0,0.0,62,0.00,,-RA,0.00,VWS V14.01,2013-10-03 21:45:00,
2013-10-03 17:49:00,69.9,56.3,30.02,NNW,342,0.0,0.0,62,0.00,,CLR,0.00,VWS V14.01,2013-10-03 21:49:00,
2013-10-03 17:54:00,69.6,56.5,30.02,NNW,342,0.0,0.0,63,0.00,,CLR,0.00,VWS V14.01,2013-10-03 21:54:00,
2013-10-03 17:59:00,69.3,57.5,30.02,NNW,342,0.0,0.0,66,0.00,,CLR,0.00,VWS V14.01,2013-10-03 21:59:00,
2013-10-03 18:00:00,69.5,56.4,30.02,NNW,342,0.0,0.0,63,0.00,,-RA,0.00,VWS V14.01,2013-10-03 22:00:00,
2013-10-03 18:04:00,69.0,58.0,30.02,NNW,342,0.0,0.0,68,0.00,,CLR,0.00,VWS V14.01,2013-10-03 22:04:00,
2013-10-03 18:09:00,68.6,58.4,30.02,NNW,342,0.0,0.0,70,0.00,,CLR,0.00,VWS V14.01,2013-10-03 22:09:00,
2013-10-03 18:14:00,68.3,58.5,30.02,NNW,342,0.0,0.0,71,0.00,,CLR,0.00,VWS V14.01,2013-10-03 22:14:00,
2013-10-03 18:15:00,68.5,58.3,30.02,NNW,342,0.0,0.0,70,0.00,,-RA,0.00,VWS V14.01,2013-10-03 22:15:00,
2013-10-03 18:19:00,68.0,58.3,30.02,NNW,342,0.0,0.0,71,0.00,,CLR,0.00,VWS V14.01,2013-10-03 22:19:00,
2013-10-03 18:24:00,67.7,58.4,30.02,NNW,342,0.0,0.0,72,0.00,,CLR,0.00,VWS V14.01,2013-10-03 22:24:00,
2013-10-03 18:29:00,67.2,58.3,30.03,NNW,342,0.0,0.0,73,0.00,,CLR,0.00,VWS V14.01,2013-10-03 22:29:00,
2013-10-03 18:30:00,67.5,58.5,30.03,NNW,342,0.0,0.0,73,0.00,,-RA,0.00,VWS V14.01,2013-10-03 22:30:00,
2013-10-03 18:34:00,66.8,57.9,30.03,NNW,342,0.0,0.0,73,0.00,,CLR,0.00,VWS V14.01,2013-10-03 22:34:00,
2013-10-03 18:39:00,66.7,58.2,30.02,NNW,342,0.0,0.0,74,0.00,,CLR,0.00,VWS V14.01,2013-10-03 22:39:00,
2013-10-03 18:44:00,66.4,57.9,30.02,NNW,342,0.0,0.0,74,0.00,,CLR,0.00,VWS V14.01,2013-10-03 22:44:00,
2013-10-03 18:45:00,70.3,56.7,30.02,NNW,342,0.0,0.0,62,0.00,,CLR,0.00,VWS V14.01,2013-10-03 22:45:00,
2013-10-03 18:49:00,66.2,58.0,30.02,NNW,342,0.0,0.0,75,0.00,,CLR,0.00,VWS V14.01,2013-10-03 22:49:00,
2013-10-03 18:54:00,65.8,58.0,30.02,NNW,342,0.0,0.0,76,0.00,,CLR,0.00,VWS V14.01,2013-10-03 22:54:00,
2013-10-03 18:59:00,65.5,58.1,30.02,NNW,342,0.0,0.0,77,0.00,,CLR,0.00,VWS V14.01,2013-10-03 22:59:00,
2013-10-03 19:00:00,65.7,57.9,30.02,NNW,342,0.0,0.0,76,0.00,,-RA,0.00,VWS V14.01,2013-10-03 23:00:00,
2013-10-03 19:04:00,65.2,57.8,30.03,NNW,342,0.0,0.0,77,0.00,,CLR,0.00,VWS V14.01,2013-10-03 23:04:00,
2013-10-03 19:09:00,64.8,57.8,30.03,NNW,342,0.0,0.0,78,0.00,,CLR,0.00,VWS V14.01,2013-10-03 23:09:00,
2013-10-03 19:14:00,64.4,57.8,30.03,NNW,342,0.0,0.0,79,0.00,,CLR,0.00,VWS V14.01,2013-10-03 23:14:00,
2013-10-03 19:15:00,64.7,57.7,30.03,NNW,342,0.0,0.0,78,0.00,,-RA,0.00,VWS V14.01,2013-10-03 23:15:00,
2013-10-03 19:19:00,64.0,57.4,30.03,NNW,342,0.0,0.0,79,0.00,,CLR,0.00,VWS V14.01,2013-10-03 23:19:00,
2013-10-03 19:24:00,63.8,57.2,30.03,NNW,342,0.0,0.0,79,0.00,,CLR,0.00,VWS V14.01,2013-10-03 23:24:00,
2013-10-03 19:29:00,63.5,56.9,30.03,NNW,342,0.0,0.0,79,0.00,,CLR,0.00,VWS V14.01,2013-10-03 23:29:00,
2013-10-03 19:30:00,63.7,57.1,30.03,NNW,342,0.0,0.0,79,0.00,,-RA,0.00,VWS V14.01,2013-10-03 23:30:00,
2013-10-03 19:34:00,63.3,56.7,30.03,NNW,342,0.0,0.0,79,0.00,,CLR,0.00,VWS V14.01,2013-10-03 23:34:00,
2013-10-03 19:39:00,63.1,56.8,30.03,NNW,342,0.0,0.0,80,0.00,,CLR,0.00,VWS V14.01,2013-10-03 23:39:00,
2013-10-03 19:44:00,62.9,56.6,30.03,NNW,342,0.0,0.0,80,0.00,,CLR,0.00,VWS V14.01,2013-10-03 23:44:00,
2013-10-03 19:45:00,63.0,56.7,30.03,NNW,342,0.0,0.0,80,0.00,,-RA,0.00,VWS V14.01,2013-10-03 23:45:00,
2013-10-03 19:49:00,62.8,56.5,30.03,NNW,342,0.0,0.0,80,0.00,,CLR,0.00,VWS V14.01,2013-10-03 23:49:00,
2013-10-03 19:54:00,62.7,56.5,30.03,NNW,342,0.0,0.0,80,0.00,,CLR,0.00,VWS V14.01,2013-10-03 23:54:00,
2013-10-03 19:59:00,62.5,56.2,30.03,NNW,342,0.0,0.0,80,0.00,,CLR,0.00,VWS V14.01,2013-10-03 23:59:00,
2013-10-03 20:00:00,62.6,56.3,30.03,NNW,342,0.0,0.0,80,0.00,,-RA,0.00,VWS V14.01,2013-10-04 00:00:00,
2013-10-03 20:04:00,62.4,56.2,30.03,NNW,342,0.0,0.0,80,0.00,,CLR,0.00,VWS V14.01,2013-10-04 00:04:00,
2013-10-03 20:09:00,62.3,56.1,30.03,NNW,342,0.0,0.0,80,0.00,,CLR,0.00,VWS V14.01,2013-10-04 00:09:00,
2013-10-03 20:14:00,62.2,56.3,30.03,NNW,342,0.0,0.0,81,0.00,,CLR,0.00,VWS V14.01,2013-10-04 00:14:00,
2013-10-03 20:15:00,62.2,56.3,30.03,NNW,342,0.0,0.0,81,0.00,,-RA,0.00,VWS V14.01,2013-10-04 00:15:00,
2013-10-03 20:19:00,62.0,56.1,30.03,NNW,342,0.0,0.0,81,0.00,,CLR,0.00,VWS V14.01,2013-10-04 00:19:00,
2013-10-03 20:24:00,61.9,56.3,30.03,NNW,342,0.0,0.0,82,0.00,,CLR,0.00,VWS V14.01,2013-10-04 00:24:00,
2013-10-03 20:29:00,61.8,56.2,30.03,NNW,342,0.0,0.0,82,0.00,,CLR,0.00,VWS V14.01,2013-10-04 00:29:00,
2013-10-03 20:30:00,61.8,56.2,30.03,NNW,342,0.0,0.0,82,0.00,,-RA,0.00,VWS V14.01,2013-10-04 00:30:00,
2013-10-03 20:34:00,61.6,56.4,30.03,NNW,342,0.0,0.0,83,0.00,,CLR,0.00,VWS V14.01,2013-10-04 00:34:00,
2013-10-03 20:39:00,61.5,56.3,30.03,NNW,342,0.0,0.0,83,0.00,,CLR,0.00,VWS V14.01,2013-10-04 00:39:00,
2013-10-03 20:44:00,61.4,56.2,30.04,NNW,342,0.0,0.0,83,0.00,,CLR,0.00,VWS V14.01,2013-10-04 00:44:00,
2013-10-03 20:45:00,61.5,56.3,30.04,NNW,342,0.0,0.0,83,0.00,,-RA,0.00,VWS V14.01,2013-10-04 00:45:00,
2013-10-03 20:49:00,61.2,56.3,30.04,NNW,342,0.0,0.0,84,0.00,,CLR,0.00,VWS V14.01,2013-10-04 00:49:00,
2013-10-03 20:54:00,61.1,56.2,30.04,NNW,342,0.0,0.0,84,0.00,,CLR,0.00,VWS V14.01,2013-10-04 00:54:00,
2013-10-03 20:59:00,60.9,56.0,30.04,NNW,342,0.0,0.0,84,0.00,,CLR,0.00,VWS V14.01,2013-10-04 00:59:00,
2013-10-03 21:00:00,61.0,56.1,30.04,NNW,342,0.0,0.0,84,0.00,,-RA,0.00,VWS V14.01,2013-10-04 01:00:00,
2013-10-03 21:04:00,60.8,55.9,30.05,NNW,342,0.0,0.0,84,0.00,,CLR,0.00,VWS V14.01,2013-10-04 01:04:00,
2013-10-03 21:09:00,60.6,55.8,30.04,NNW,342,0.0,0.0,84,0.00,,CLR,0.00,VWS V14.01,2013-10-04 01:09:00,
2013-10-03 21:14:00,60.5,55.7,30.05,NNW,342,0.0,0.0,84,0.00,,CLR,0.00,VWS V14.01,2013-10-04 01:14:00,
2013-10-03 21:15:00,60.6,55.8,30.04,NNW,342,0.0,0.0,84,0.00,,-RA,0.00,VWS V14.01,2013-10-04 01:15:00,
2013-10-03 21:19:00,60.4,55.9,30.05,NNW,342,0.0,0.0,85,0.00,,CLR,0.00,VWS V14.01,2013-10-04 01:19:00,
2013-10-03 21:24:00,60.2,55.7,30.05,NNW,342,0.0,0.0,85,0.00,,CLR,0.00,VWS V14.01,2013-10-04 01:24:00,
2013-10-03 21:29:00,60.1,55.6,30.05,NNW,342,0.0,0.0,85,0.00,,CLR,0.00,VWS V14.01,2013-10-04 01:29:00,
2013-10-03 21:30:00,60.1,55.6,30.05,NNW,342,0.0,0.0,85,0.00,,-RA,0.00,VWS V14.01,2013-10-04 01:30:00,
2013-10-03 21:34:00,60.0,55.5,30.05,NNW,342,0.0,0.0,85,0.00,,CLR,0.00,VWS V14.01,2013-10-04 01:34:00,
2013-10-03 21:39:00,59.8,55.3,30.05,NNW,342,0.0,0.0,85,0.00,,CLR,0.00,VWS V14.01,2013-10-04 01:39:00,
2013-10-03 21:44:00,59.8,55.3,30.05,NNW,342,0.0,0.0,85,0.00,,CLR,0.00,VWS V14.01,2013-10-04 01:44:00,
2013-10-03 21:45:00,59.8,55.3,30.05,NNW,342,0.0,0.0,85,0.00,,-RA,0.00,VWS V14.01,2013-10-04 01:45:00,
2013-10-03 21:49:00,59.6,55.4,30.05,NNW,342,0.0,0.0,86,0.00,,CLR,0.00,VWS V14.01,2013-10-04 01:49:00,
2013-10-03 21:54:00,59.5,55.3,30.05,NNW,342,0.0,0.0,86,0.00,,CLR,0.00,VWS V14.01,2013-10-04 01:54:00,
2013-10-03 21:59:00,59.5,55.3,30.05,NNW,342,0.0,0.0,86,0.00,,CLR,0.00,VWS V14.01,2013-10-04 01:59:00,
2013-10-03 22:00:00,59.5,55.3,30.05,NNW,342,0.0,0.0,86,0.00,,-RA,0.00,VWS V14.01,2013-10-04 02:00:00,
2013-10-03 22:04:00,59.4,55.5,30.05,NNW,342,0.0,0.0,87,0.00,,CLR,0.00,VWS V14.01,2013-10-04 02:04:00,
2013-10-03 22:09:00,59.3,55.4,30.06,NNW,342,0.0,0.0,87,0.00,,CLR,0.00,VWS V14.01,2013-10-04 02:09:00,
2013-10-03 22:14:00,59.2,55.3,30.06,NNW,342,0.0,0.0,87,0.00,,CLR,0.00,VWS V14.01,2013-10-04 02:14:00,
2013-10-03 22:15:00,59.3,55.4,30.05,NNW,342,0.0,0.0,87,0.00,,-RA,0.00,VWS V14.01,2013-10-04 02:15:00,
2013-10-03 22:19:00,59.1,55.2,30.06,NNW,342,0.0,0.0,87,0.00,,CLR,0.00,VWS V14.01,2013-10-04 02:19:00,
2013-10-03 22:24:00,59.1,55.2,30.06,NNW,342,0.0,0.0,87,0.00,,CLR,0.00,VWS V14.01,2013-10-04 02:24:00,
2013-10-03 22:29:00,59.0,55.1,30.06,NNW,342,0.0,0.0,87,0.00,,CLR,0.00,VWS V14.01,2013-10-04 02:29:00,
2013-10-03 22:30:00,59.0,55.1,30.06,NNW,342,0.0,0.0,87,0.00,,-RA,0.00,VWS V14.01,2013-10-04 02:30:00,
2013-10-03 22:34:00,58.9,55.0,30.06,NNW,342,0.0,0.0,87,0.00,,CLR,0.00,VWS V14.01,2013-10-04 02:34:00,
2013-10-03 22:39:00,58.8,55.0,30.06,NNW,342,0.0,0.0,87,0.00,,CLR,0.00,VWS V14.01,2013-10-04 02:39:00,
2013-10-03 22:44:00,58.7,54.8,30.06,NNW,342,0.0,0.0,87,0.00,,CLR,0.00,VWS V14.01,2013-10-04 02:44:00,
2013-10-03 22:45:00,58.7,54.8,30.06,NNW,342,0.0,0.0,87,0.00,,-RA,0.00,VWS V14.01,2013-10-04 02:45:00,
2013-10-03 22:49:00,58.6,54.8,30.06,NNW,342,0.0,0.0,87,0.00,,CLR,0.00,VWS V14.01,2013-10-04 02:49:00,
2013-10-03 22:54:00,58.5,54.7,30.06,NNW,342,0.0,0.0,87,0.00,,CLR,0.00,VWS V14.01,2013-10-04 02:54:00,
2013-10-03 22:59:00,58.4,54.5,30.07,NNW,342,0.0,0.0,87,0.00,,CLR,0.00,VWS V14.01,2013-10-04 02:59:00,
2013-10-03 23:00:00,58.5,54.7,30.06,NNW,342,0.0,0.0,87,0.00,,-RA,0.00,VWS V14.01,2013-10-04 03:00:00,
2013-10-03 23:04:00,58.4,54.5,30.07,NNW,342,0.0,0.0,87,0.00,,CLR,0.00,VWS V14.01,2013-10-04 03:04:00,
2013-10-03 23:09:00,58.3,54.5,30.07,NNW,342,0.0,0.0,87,0.00,,CLR,0.00,VWS V14.01,2013-10-04 03:09:00,
2013-10-03 23:14:00,58.2,54.7,30.06,NNW,342,0.0,0.0,88,0.00,,CLR,0.00,VWS V14.01,2013-10-04 03:14:00,
2013-10-03 23:15:00,58.3,54.8,30.07,NNW,342,0.0,0.0,88,0.00,,-RA,0.00,VWS V14.01,2013-10-04 03:15:00,
2013-10-03 23:19:00,58.1,54.6,30.06,NNW,342,0.0,0.0,88,0.00,,CLR,0.00,VWS V14.01,2013-10-04 03:19:00,
2013-10-03 23:24:00,58.1,54.6,30.06,NNW,342,0.0,0.0,88,0.00,,CLR,0.00,VWS V14.01,2013-10-04 03:24:00,
2013-10-03 23:29:00,58.0,54.5,30.06,NNW,342,0.0,0.0,88,0.00,,CLR,0.00,VWS V14.01,2013-10-04 03:29:00,
2013-10-03 23:30:00,58.0,54.5,30.06,NNW,342,0.0,0.0,88,0.00,,-RA,0.00,VWS V14.01,2013-10-04 03:30:00,
2013-10-03 23:34:00,57.9,54.4,30.06,NNW,342,0.0,0.0,88,0.00,,CLR,0.00,VWS V14.01,2013-10-04 03:34:00,
2013-10-03 23:39:00,57.8,54.3,30.06,NNW,342,0.0,0.0,88,0.00,,CLR,0.00,VWS V14.01,2013-10-04 03:39:00,
2013-10-03 23:44:00,57.8,54.3,30.06,NNW,342,0.0,0.0,88,0.00,,CLR,0.00,VWS V14.01,2013-10-04 03:44:00,
2013-10-03 23:45:00,57.8,54.3,30.06,NNW,342,0.0,0.0,88,0.00,,-RA,0.00,VWS V14.01,2013-10-04 03:45:00,
2013-10-03 23:49:00,57.7,54.2,30.06,NNW,342,0.0,0.0,88,0.00,,CLR,0.00,VWS V14.01,2013-10-04 03:49:00,
2013-10-03 23:54:00,57.6,54.1,30.05,NNW,342,0.0,0.0,88,0.00,,CLR,0.00,VWS V14.01,2013-10-04 03:54:00,
2013-10-03 23:59:00,57.5,54.0,30.05,NNW,342,0.0,0.0,88,0.00,,CLR,0.00,VWS V14.01,2013-10-04 03:59:00,